Time;durP1;ratioP1;P1;durP2;ratioP2;P2;SDS_P1;SDS_P2;PMS_P1;PMS_P2;Temp;Humidity;BMP_temperature;BMP_pressure;BME280_temperature;BME280_humidity;BME280_pressure;Samples;Min_cycle;Max_cycle;Signal;HPM_P1;HPM_P2
2023/06/15 00:00:23;;;;;;;1.38;0.32;;;;;;;37.19;30.20;100338.13;7395122;19;20022;-94
2023/06/15 00:02:49;;;;;;;3.45;0.80;;;;;;;36.78;31.03;100335.38;7400129;19;20473;-96
2023/06/15 00:05:16;;;;;;;1.15;0.55;;;;;;;30.74;39.85;100343.47;7399028;19;20010;-95
2023/06/15 00:07:43;;;;;;;3.67;1.05;;;;;;;36.34;32.20;100333.81;7395796;19;20018;-92
2023/06/15 00:10:10;;;;;;;9.32;1.52;;;;;;;36.71;31.62;100329.94;7394073;19;20018;-93
2023/06/15 00:12:37;;;;;;;8.27;1.38;;;;;;;36.21;31.59;100330.97;7397190;19;20109;-93
2023/06/15 00:15:03;;;;;;;9.75;0.80;;;;;;;36.53;31.29;100337.69;7396024;19;20018;-94
2023/06/15 00:17:30;;;;;;;1.05;1.00;;;;;;;36.33;31.43;100328.69;7396351;19;20025;-94
2023/06/15 00:20:00;;;;;;;3.47;0.50;;;;;;;36.30;31.01;100332.91;7394549;19;20023;-93
2023/06/15 00:22:28;;;;;;;1.23;0.70;;;;;;;36.46;30.68;100339.53;7396811;19;20039;-93
2023/06/15 00:24:55;;;;;;;1.58;0.98;;;;;;;36.77;30.66;100330.22;7397053;19;20011;-90
2023/06/15 00:27:21;;;;;;;5.93;1.40;;;;;;;34.85;32.36;100339.28;7396178;19;20018;-91
2023/06/15 00:29:47;;;;;;;2.10;1.00;;;;;;;35.92;31.50;100331.59;7395174;19;20046;-90
2023/06/15 00:32:13;;;;;;;2.90;0.90;;;;;;;35.45;32.28;100331.19;7393989;19;20007;-91
2023/06/15 00:34:39;;;;;;;0.85;0.75;;;;;;;35.91;31.81;100335.13;7394747;19;20018;-92
2023/06/15 00:37:06;;;;;;;1.10;0.47;;;;;;;36.88;30.58;100321.38;7395216;19;20011;-91
2023/06/15 00:39:32;;;;;;;3.92;0.63;;;;;;;37.11;30.21;100315.25;7394585;19;20011;-92
2023/06/15 00:41:58;;;;;;;4.05;1.15;;;;;;;36.94;30.48;100324.59;7395569;19;20005;-91
2023/06/15 00:44:27;;;;;;;1.10;0.47;;;;;;;36.64;30.40;100331.78;7397403;19;20537;-96
2023/06/15 00:46:53;;;;;;;0.90;0.90;;;;;;;26.97;45.40;100334.44;7392523;19;20018;-87
2023/06/15 00:49:21;;;;;;;6.65;1.20;;;;;;;21.53;73.71;100344.03;7391945;19;20086;-88
2023/06/15 00:51:47;;;;;;;3.65;1.10;;;;;;;18.09;100.00;100363.19;7392155;19;20090;-88
2023/06/15 00:54:18;;;;;;;0.95;0.85;;;;;;;17.30;100.00;100364.44;7393097;19;20014;-88
2023/06/15 00:56:44;;;;;;;2.63;1.52;;;;;;;26.54;86.37;100346.19;7393723;19;20010;-89
2023/06/15 00:59:11;;;;;;;4.10;1.33;;;;;;;21.08;100.00;100347.56;7393229;19;20018;-89
2023/06/15 01:01:37;;;;;;;2.72;1.80;;;;;;;16.19;100.00;100356.84;7395191;19;20336;-89
2023/06/15 01:04:03;;;;;;;2.33;1.20;;;;;;;28.62;75.92;100345.22;7396830;19;20019;-89
2023/06/15 01:06:31;;;;;;;3.08;1.50;;;;;;;31.06;48.56;100340.16;7402264;19;20531;-89
2023/06/15 01:09:01;;;;;;;4.55;1.15;;;;;;;29.82;50.85;100343.59;7397939;19;20021;-88
2023/06/15 01:11:30;;;;;;;2.50;1.08;;;;;;;31.44;43.98;100345.09;7399440;19;20019;-89
2023/06/15 01:13:58;;;;;;;2.22;1.05;;;;;;;34.15;41.59;100333.72;7400570;19;20038;-89
2023/06/15 01:16:37;;;;;;;1.55;1.15;;;;;;;34.52;40.05;100341.69;7400611;19;20380;-89
2023/06/15 01:19:09;;;;;;;1.58;1.42;;;;;;;34.24;39.50;100334.94;7399263;19;20039;-89
2023/06/15 01:21:36;;;;;;;3.55;1.17;;;;;;;34.02;39.20;100343.03;7400424;19;20029;-89
2023/06/15 01:24:24;;;;;;;2.65;1.67;;;;;;;35.41;37.27;100338.91;7403482;19;20370;-89
2023/06/15 01:26:52;;;;;;;1.55;0.90;;;;;;;35.32;36.73;100337.69;7401228;19;20022;-89
2023/06/15 01:29:21;;;;;;;1.77;1.35;;;;;;;35.56;35.78;100339.06;7398820;19;20469;-89
2023/06/15 01:31:49;;;;;;;2.13;0.73;;;;;;;35.79;35.58;100333.09;7397570;19;20014;-89
2023/06/15 01:34:15;;;;;;;6.55;1.80;;;;;;;35.00;35.76;100335.84;7399020;19;20484;-89
2023/06/15 01:36:41;;;;;;;4.75;1.60;;;;;;;35.08;36.19;100329.78;7402690;19;20088;-89
2023/06/15 01:39:07;;;;;;;4.80;1.15;;;;;;;35.49;35.26;100331.44;7398628;19;20481;-90
2023/06/15 01:41:34;;;;;;;2.28;1.27;;;;;;;35.42;35.01;100332.47;7399677;19;20018;-89
2023/06/15 01:44:03;;;;;;;4.10;1.63;;;;;;;34.75;36.14;100335.81;7401027;19;20025;-90
2023/06/15 01:46:31;;;;;;;1.33;1.15;;;;;;;34.21;36.49;100336.97;7396695;19;20022;-89
2023/06/15 01:48:58;;;;;;;1.77;1.00;;;;;;;29.23;44.36;100340.28;7397844;19;20488;-89
2023/06/15 01:51:26;;;;;;;2.15;0.80;;;;;;;29.94;42.96;100335.94;7398751;19;20019;-89
2023/06/15 01:53:52;;;;;;;3.28;1.38;;;;;;;24.28;83.14;100352.84;7399725;19;20098;-89
2023/06/15 01:56:18;;;;;;;1.05;0.95;;;;;;;33.28;43.18;100332.50;7396791;19;20017;-90
2023/06/15 01:58:45;;;;;;;2.20;1.48;;;;;;;34.18;39.83;100338.22;7394982;19;20018;-89
2023/06/15 02:01:11;;;;;;;4.20;1.95;;;;;;;30.82;44.47;100341.19;7396702;19;20034;-89
2023/06/15 02:03:37;;;;;;;1.65;1.42;;;;;;;33.83;39.46;100339.63;7400751;19;20545;-89
2023/06/15 02:06:08;;;;;;;16.08;1.40;;;;;;;32.86;40.69;100339.88;7400244;19;20066;-89
2023/06/15 02:11:42;;;;;;;2.22;0.85;;;;;;;30.36;47.11;100343.47;7397265;19;20006;-59
2023/06/15 02:14:09;;;;;;;1.17;0.75;;;;;;;27.88;49.05;100353.91;7397853;19;20011;-60
2023/06/15 02:16:35;;;;;;;4.95;1.13;;;;;;;25.01;60.44;100349.50;7391534;19;20019;-59
2023/06/15 02:19:04;;;;;;;4.40;1.25;;;;;;;25.80;61.54;100351.38;7395171;19;20361;-59
2023/06/15 02:21:30;;;;;;;2.67;1.17;;;;;;;25.30;63.69;100352.97;7392853;19;20014;-60
2023/06/15 02:23:56;;;;;;;6.50;1.17;;;;;;;25.77;62.34;100352.53;7397268;19;20019;-60
2023/06/15 02:26:23;;;;;;;3.75;2.35;;;;;;;25.63;62.96;100357.66;7394262;19;20023;-60
2023/06/15 02:28:49;;;;;;;0.93;0.93;;;;;;;25.53;63.28;100351.72;7394037;19;20034;-59
2023/06/15 02:31:15;;;;;;;6.72;2.25;;;;;;;25.42;63.40;100349.25;7394171;19;20073;-60
2023/06/15 02:33:41;;;;;;;1.58;1.13;;;;;;;25.32;63.65;100356.78;7397002;19;20017;-59
2023/06/15 02:36:07;;;;;;;4.78;2.13;;;;;;;25.09;64.74;100358.81;7399689;19;20470;-59
2023/06/15 02:38:33;;;;;;;0.98;0.90;;;;;;;25.20;65.39;100344.22;7395042;19;20087;-60
2023/06/15 02:40:59;;;;;;;1.33;1.17;;;;;;;25.29;65.38;100352.25;7396472;19;20031;-59
2023/06/15 02:43:26;;;;;;;2.85;1.00;;;;;;;25.32;65.57;100353.94;7397105;19;20014;-59
2023/06/15 02:45:52;;;;;;;1.60;1.10;;;;;;;28.66;57.89;100346.31;7396201;19;20006;-59
2023/06/15 02:48:19;;;;;;;2.38;1.65;;;;;;;30.48;51.87;100350.13;7394883;19;20010;-59
2023/06/15 02:50:45;;;;;;;1.02;0.85;;;;;;;31.30;45.60;100341.91;7394493;19;20028;-59
2023/06/15 02:53:17;;;;;;;4.18;1.60;;;;;;;26.34;58.31;100350.78;7396688;19;20057;-59
2023/06/15 02:55:45;;;;;;;2.40;1.83;;;;;;;26.00;58.58;100344.72;7394726;19;20352;-60
2023/06/15 02:58:13;;;;;;;1.20;0.70;;;;;;;25.26;62.37;100339.09;7395078;19;20408;-59
2023/06/15 03:01:08;;;;;;;5.18;1.23;;;;;;;23.61;71.13;100335.97;7394630;19;20378;-60
2023/06/15 03:03:48;;;;;;;4.47;1.20;;;;;;;26.75;55.27;100338.91;7398270;19;20017;-59
2023/06/15 03:06:15;;;;;;;14.18;2.58;;;;;;;26.06;58.23;100342.44;7397624;19;20014;-60
2023/06/15 03:08:42;;;;;;;3.83;1.27;;;;;;;32.20;45.30;100335.34;7394045;19;20010;-59
2023/06/15 03:11:30;;;;;;;2.28;1.40;;;;;;;31.83;42.71;100339.94;7393579;19;20010;-59
2023/06/15 03:13:57;;;;;;;5.75;1.23;;;;;;;32.18;42.75;100341.00;7395700;19;20034;-59
2023/06/15 03:16:26;;;;;;;9.57;2.03;;;;;;;32.76;41.24;100344.97;7394002;19;20011;-59
2023/06/15 03:18:54;;;;;;;3.38;0.80;;;;;;;33.42;40.37;100339.16;7392871;19;20015;-59
2023/06/15 03:21:22;;;;;;;4.00;1.60;;;;;;;33.80;39.23;100340.88;7392599;19;20027;-59
2023/06/15 03:23:50;;;;;;;4.45;1.20;;;;;;;32.47;42.13;100338.66;7396243;19;20014;-59
2023/06/15 03:26:16;;;;;;;4.72;2.33;;;;;;;34.23;38.41;100339.97;7394221;19;20363;-59
2023/06/15 03:28:43;;;;;;;5.78;1.25;;;;;;;34.38;37.60;100335.03;7391364;19;20443;-59
2023/06/15 03:31:17;;;;;;;4.15;0.50;;;;;;;34.38;36.91;100335.03;7392892;19;20039;-59
2023/06/15 03:33:44;;;;;;;4.38;1.92;;;;;;;34.56;36.52;100339.03;7396902;19;20446;-59
2023/06/15 03:36:13;;;;;;;2.42;0.90;;;;;;;33.35;37.76;100337.28;7396340;19;20090;-59
2023/06/15 03:38:43;;;;;;;12.27;1.85;;;;;;;34.02;36.63;100340.13;7392879;19;20022;-59
2023/06/15 03:41:10;;;;;;;7.03;1.58;;;;;;;33.92;36.86;100336.56;7393689;19;20463;-59
2023/06/15 03:43:37;;;;;;;1.95;1.15;;;;;;;33.93;36.49;100337.34;7395831;19;20087;-60
2023/06/15 03:46:05;;;;;;;3.35;1.15;;;;;;;26.77;47.13;100347.66;7395002;19;20009;-59
2023/06/15 03:48:32;;;;;;;7.80;1.45;;;;;;;26.36;49.31;100348.13;7394063;19;20022;-60
2023/06/15 03:50:59;;;;;;;1.20;0.85;;;;;;;27.45;49.02;100340.88;7392871;19;20023;-59
2023/06/15 03:53:25;;;;;;;2.00;1.02;;;;;;;25.90;55.83;100346.63;7393692;19;20014;-60
2023/06/15 03:55:52;;;;;;;2.05;0.95;;;;;;;23.38;70.70;100352.81;7392835;19;20015;-59
2023/06/15 03:58:18;;;;;;;2.65;1.40;;;;;;;26.12;59.75;100345.88;7391715;19;20016;-61
2023/06/15 04:00:47;;;;;;;3.92;1.27;;;;;;;26.69;57.26;100346.91;7392622;19;20070;-60
2023/06/15 04:03:14;;;;;;;6.55;1.27;;;;;;;25.09;58.95;100360.91;7396061;19;20010;-60
2023/06/15 04:05:42;;;;;;;1.25;0.45;;;;;;;26.16;59.08;100335.59;7394449;19;20041;-59
2023/06/15 04:08:08;;;;;;;3.55;1.00;;;;;;;24.92;63.53;100352.09;7392174;19;20011;-59
2023/06/15 04:10:35;;;;;;;1.52;0.57;;;;;;;26.05;59.91;100358.06;7392922;19;20026;-59
2023/06/15 04:13:02;;;;;;;2.20;0.85;;;;;;;26.06;59.64;100353.84;7393120;19;20034;-59
2023/06/15 04:15:29;;;;;;;2.25;1.08;;;;;;;22.47;75.28;100356.56;7389799;19;20017;-59
2023/06/15 04:18:00;;;;;;;2.80;1.35;;;;;;;21.66;89.31;100353.34;7392344;19;20018;-59
2023/06/15 04:20:31;;;;;;;2.47;1.35;;;;;;;21.78;91.09;100359.63;7392356;19;20100;-59
2023/06/15 04:22:59;;;;;;;4.18;2.10;;;;;;;21.99;95.42;100351.28;7393333;19;20023;-59
2023/06/15 04:25:27;;;;;;;6.47;0.95;;;;;;;22.73;87.06;100350.13;7391948;19;20449;-59
2023/06/15 04:27:53;;;;;;;1.60;1.30;;;;;;;25.24;73.81;100356.00;7392064;19;20069;-59
2023/06/15 04:30:24;;;;;;;5.95;1.42;;;;;;;25.50;71.55;100364.28;7390870;19;20019;-59
2023/06/15 04:32:59;;;;;;;6.80;2.40;;;;;;;25.01;74.96;100360.88;7391748;19;20010;-59
2023/06/15 04:35:31;;;;;;;1.67;0.90;;;;;;;25.93;69.26;100356.91;7390906;19;20066;-59
2023/06/15 04:37:59;;;;;;;3.63;1.25;;;;;;;25.89;67.62;100360.13;7391924;19;20015;-60
2023/06/15 04:40:25;;;;;;;2.08;1.35;;;;;;;25.63;68.88;100368.28;7395038;19;20015;-59
2023/06/15 04:42:53;;;;;;;0.95;0.73;;;;;;;25.29;70.95;100369.34;7399085;19;20014;-59
2023/06/15 04:45:19;;;;;;;7.47;1.33;;;;;;;24.80;72.80;100375.22;7398670;19;20014;-59
2023/06/15 04:47:47;;;;;;;4.70;0.90;;;;;;;22.83;88.75;100371.84;7400333;19;20014;-54
2023/06/15 04:50:22;;;;;;;3.55;1.02;;;;;;;24.94;76.78;100367.31;7400832;19;20044;-58
2023/06/15 04:52:48;;;;;;;1.98;0.75;;;;;;;24.98;78.23;100367.72;7396249;19;20015;-54
2023/06/15 04:55:14;;;;;;;0.93;0.40;;;;;;;26.61;69.38;100365.41;7397675;19;20023;-54
2023/06/15 04:57:41;;;;;;;1.48;0.63;;;;;;;26.31;67.73;100372.69;7398409;19;20358;-54
2023/06/15 05:00:09;;;;;;;2.90;0.88;;;;;;;25.89;70.83;100373.66;7398767;19;20019;-54
2023/06/15 05:02:41;;;;;;;3.08;0.80;;;;;;;26.14;69.76;100371.78;7400816;19;20015;-54
2023/06/15 05:05:08;;;;;;;5.82;1.48;;;;;;;24.43;74.34;100375.72;7404017;19;20400;-54
2023/06/15 05:07:34;;;;;;;3.55;1.23;;;;;;;25.35;74.23;100375.63;7398195;19;20022;-54
2023/06/15 05:10:00;;;;;;;3.55;1.65;;;;;;;24.33;81.83;100376.81;7397884;19;20014;-58
2023/06/15 05:12:31;;;;;;;5.47;1.17;;;;;;;24.56;83.03;100380.59;7392295;19;20053;-83
2023/06/15 05:14:57;;;;;;;6.93;1.38;;;;;;;25.28;78.33;100367.81;7395799;19;20078;-86
2023/06/15 05:17:24;;;;;;;2.63;1.02;;;;;;;24.22;83.50;100377.88;7396497;19;20013;-85
2023/06/15 05:19:50;;;;;;;12.73;1.10;;;;;;;24.62;82.63;100381.94;7395550;19;20043;-85
2023/06/15 05:22:17;;;;;;;4.75;1.42;;;;;;;25.72;75.77;100384.84;7396268;19;20038;-85
2023/06/15 05:24:43;;;;;;;3.17;0.73;;;;;;;27.41;68.84;100375.63;7400117;19;20014;-85
2023/06/15 05:27:10;;;;;;;2.67;0.77;;;;;;;28.33;55.00;100377.22;7398490;19;20027;-86
2023/06/15 05:29:39;;;;;;;1.05;0.60;;;;;;;16.89;100.00;100385.09;7395833;19;20591;-86
2023/06/15 05:32:08;;;;;;;2.80;0.98;;;;;;;15.47;100.00;100393.59;7396495;19;20019;-86
2023/06/15 05:34:35;;;;;;;2.10;1.05;;;;;;;20.99;100.00;100392.44;7396602;19;20421;-86
2023/06/15 05:37:02;;;;;;;1.20;0.50;;;;;;;23.22;100.00;100371.00;7399624;19;20026;-85
2023/06/15 05:39:35;;;;;;;4.40;1.10;;;;;;;26.62;86.62;100373.41;7393834;19;20011;-86
2023/06/15 05:42:02;;;;;;;7.13;1.05;;;;;;;27.40;78.30;100374.09;7394930;19;20029;-85
2023/06/15 05:44:28;;;;;;;2.72;1.05;;;;;;;27.86;74.25;100370.91;7400085;19;20014;-85
2023/06/15 05:46:57;;;;;;;5.22;1.65;;;;;;;26.69;77.11;100372.63;7395364;19;20013;-85
2023/06/15 05:49:23;;;;;;;3.15;0.93;;;;;;;27.44;75.59;100374.44;7395424;19;20018;-86
2023/06/15 05:51:49;;;;;;;7.82;1.63;;;;;;;29.07;66.09;100373.34;7397026;19;20016;-88
2023/06/15 05:54:16;;;;;;;2.50;0.73;;;;;;;28.09;69.87;100375.13;7398613;19;20017;-88
2023/06/15 05:56:43;;;;;;;1.75;0.80;;;;;;;28.50;67.56;100373.63;7397290;19;20014;-88
2023/06/15 05:59:09;;;;;;;2.72;0.80;;;;;;;28.66;66.25;100375.00;7396449;19;20469;-87
2023/06/15 06:01:35;;;;;;;3.55;1.33;;;;;;;28.69;66.04;100370.19;7398962;19;20043;-88
2023/06/15 06:04:02;;;;;;;2.20;0.47;;;;;;;28.65;65.55;100378.44;7398369;19;20490;-87
2023/06/15 06:06:28;;;;;;;1.60;0.95;;;;;;;29.11;64.27;100385.16;7399974;19;20437;-87
2023/06/15 06:08:54;;;;;;;4.03;0.35;;;;;;;28.98;64.50;100382.63;7397353;19;20014;-87
2023/06/15 06:11:20;;;;;;;0.88;0.45;;;;;;;30.48;59.99;100376.00;7395363;19;20018;-86
2023/06/15 06:13:51;;;;;;;3.50;2.28;;;;;;;30.91;57.60;100375.00;7397445;19;20026;-88
2023/06/15 06:16:18;;;;;;;1.42;1.02;;;;;;;30.87;56.64;100376.81;7396087;19;20353;-86
2023/06/15 06:18:44;;;;;;;3.78;1.50;;;;;;;30.16;58.98;100380.00;7396602;19;20019;-87
2023/06/15 06:21:11;;;;;;;1.73;0.88;;;;;;;30.40;58.68;100389.78;7394803;19;20022;-87
2023/06/15 06:23:39;;;;;;;3.55;0.93;;;;;;;30.80;57.47;100381.31;7395181;19;20018;-86
2023/06/15 06:26:05;;;;;;;10.50;1.80;;;;;;;30.98;56.92;100385.59;7395728;19;20011;-87
2023/06/15 06:28:31;;;;;;;3.00;0.88;;;;;;;30.59;56.85;100395.53;7394457;19;20022;-87
2023/06/15 06:30:57;;;;;;;0.57;0.40;;;;;;;30.68;57.00;100398.44;7396659;19;20015;-87
2023/06/15 06:33:23;;;;;;;11.35;1.90;;;;;;;31.11;55.79;100390.88;7397470;19;20077;-86
2023/06/15 06:35:50;;;;;;;2.85;0.82;;;;;;;30.87;56.14;100391.19;7397180;19;20030;-86
2023/06/15 06:38:16;;;;;;;2.08;0.57;;;;;;;27.96;63.83;100401.19;7396604;19;20015;-86
2023/06/15 06:40:42;;;;;;;3.83;0.52;;;;;;;30.28;58.79;100397.41;7394441;19;20003;-86
2023/06/15 06:43:08;;;;;;;1.20;1.10;;;;;;;30.55;57.67;100401.00;7394277;19;20026;-86
2023/06/15 06:45:34;;;;;;;2.00;0.75;;;;;;;30.87;56.95;100400.59;7394432;19;20081;-86
2023/06/15 06:48:00;;;;;;;8.82;0.93;;;;;;;31.05;56.63;100407.72;7394756;19;20010;-84
2023/06/15 06:50:27;;;;;;;3.65;0.77;;;;;;;31.16;55.68;100404.22;7390958;19;20014;-84
2023/06/15 06:52:53;;;;;;;1.83;0.90;;;;;;;30.40;57.59;100395.53;7392478;19;20022;-84
2023/06/15 06:55:19;;;;;;;6.80;1.20;;;;;;;30.53;57.64;100400.84;7395017;19;20043;-84
2023/06/15 06:57:45;;;;;;;3.10;0.77;;;;;;;30.77;57.20;100405.56;7392734;19;20015;-83
2023/06/15 07:00:11;;;;;;;0.95;0.77;;;;;;;30.47;58.60;100406.88;7389951;19;20147;-85
2023/06/15 07:02:38;;;;;;;2.80;0.60;;;;;;;30.76;58.58;100403.25;7396461;19;20095;-89
2023/06/15 07:05:04;;;;;;;2.65;1.17;;;;;;;31.35;56.11;100404.19;7398869;19;20022;-87
2023/06/15 07:07:30;;;;;;;1.23;0.40;;;;;;;30.66;58.98;100412.66;7394691;19;20035;-87
2023/06/15 07:09:56;;;;;;;10.20;0.90;;;;;;;30.50;60.66;100404.91;7392631;19;20007;-87
2023/06/15 07:12:22;;;;;;;2.03;0.73;;;;;;;30.82;59.94;100418.88;7392781;19;20019;-86
2023/06/15 07:14:49;;;;;;;3.40;1.38;;;;;;;30.74;59.95;100418.25;7395596;19;20014;-87
2023/06/15 07:17:15;;;;;;;3.22;1.02;;;;;;;30.53;60.55;100420.97;7394585;19;20071;-87
2023/06/15 07:19:41;;;;;;;2.30;0.47;;;;;;;30.53;60.81;100423.84;7391733;19;20006;-86
2023/06/15 07:22:07;;;;;;;4.90;1.02;;;;;;;31.41;57.71;100413.28;7392192;19;20014;-86
2023/06/15 07:24:35;;;;;;;1.38;0.82;;;;;;;31.04;57.50;100417.69;7395668;19;20015;-86
2023/06/15 07:27:01;;;;;;;3.95;0.80;;;;;;;31.76;56.50;100418.66;7393698;19;20022;-85
2023/06/15 07:29:27;;;;;;;6.45;0.63;;;;;;;32.45;53.93;100416.38;7392884;19;20025;-86
2023/06/15 07:31:53;;;;;;;1.90;0.50;;;;;;;32.45;53.96;100413.50;7393107;19;20018;-86
2023/06/15 07:34:20;;;;;;;2.80;0.50;;;;;;;31.48;56.54;100417.38;7397566;19;20021;-85
2023/06/15 07:36:46;;;;;;;3.25;1.05;;;;;;;30.85;57.39;100429.16;7416562;19;20015;-84
2023/06/15 07:39:12;;;;;;;1.30;0.45;;;;;;;30.38;60.38;100426.97;7414122;19;20049;-83
2023/06/15 07:41:39;;;;;;;2.40;0.88;;;;;;;31.15;59.12;100419.19;7398537;19;20022;-84
2023/06/15 07:44:05;;;;;;;3.20;0.70;;;;;;;31.47;58.23;100417.97;7393332;19;20428;-84
2023/06/15 07:46:31;;;;;;;3.70;0.80;;;;;;;29.39;62.16;100430.53;7393917;19;20015;-84
2023/06/15 07:48:57;;;;;;;2.22;0.63;;;;;;;26.43;86.63;100426.56;7390246;19;20190;-84
2023/06/15 07:51:23;;;;;;;3.58;0.68;;;;;;;30.80;70.91;100426.59;7390714;19;20019;-84
2023/06/15 07:53:49;;;;;;;5.75;0.85;;;;;;;31.57;64.40;100422.34;7391737;19;20022;-84
2023/06/15 07:56:15;;;;;;;5.43;0.77;;;;;;;31.89;62.76;100426.78;7392581;19;20019;-84
2023/06/15 07:58:41;;;;;;;6.38;0.45;;;;;;;33.10;55.26;100421.56;7392746;19;20023;-85
2023/06/15 08:01:07;;;;;;;2.35;0.95;;;;;;;32.80;55.60;100423.16;7391362;19;20010;-84
2023/06/15 08:03:33;;;;;;;0.68;0.40;;;;;;;32.75;55.94;100427.13;7391046;19;20049;-84
2023/06/15 08:06:00;;;;;;;2.33;1.35;;;;;;;33.20;54.60;100430.16;7394078;19;20018;-84
2023/06/15 08:08:26;;;;;;;2.38;0.50;;;;;;;33.52;53.88;100421.50;7392937;19;20029;-85
2023/06/15 08:10:52;;;;;;;1.92;0.52;;;;;;;33.03;54.06;100427.56;7392516;19;20014;-85
2023/06/15 08:13:18;;;;;;;2.58;0.40;;;;;;;33.05;54.59;100430.59;7391317;19;20007;-85
2023/06/15 08:15:45;;;;;;;1.65;0.57;;;;;;;33.50;51.32;100423.47;7395517;19;20030;-84
2023/06/15 08:18:11;;;;;;;1.58;0.52;;;;;;;33.51;51.76;100433.66;7397180;19;20018;-84
2023/06/15 08:20:37;;;;;;;3.22;0.60;;;;;;;33.44;51.93;100437.53;7397548;19;20019;-85
2023/06/15 08:23:03;;;;;;;0.70;0.35;;;;;;;32.30;53.82;100428.31;7399332;19;20024;-85
2023/06/15 08:25:33;;;;;;;6.05;0.80;;;;;;;32.20;54.32;100435.50;7402377;19;20014;-85
2023/06/15 08:27:59;;;;;;;1.63;0.73;;;;;;;34.25;51.30;100423.22;7399192;19;20437;-85
2023/06/15 08:30:25;;;;;;;4.45;0.82;;;;;;;34.23;49.55;100423.84;7397038;19;20022;-86
2023/06/15 08:32:51;;;;;;;7.85;1.48;;;;;;;34.89;50.11;100424.22;7398309;19;20082;-85
2023/06/15 08:35:17;;;;;;;6.07;1.00;;;;;;;35.17;48.47;100422.28;7398418;19;20018;-84
2023/06/15 08:37:43;;;;;;;3.00;1.02;;;;;;;35.26;49.29;100432.94;7398917;19;20044;-85
2023/06/15 08:40:11;;;;;;;3.85;0.45;;;;;;;34.89;48.67;100435.09;7394580;19;20020;-86
2023/06/15 08:42:38;;;;;;;2.35;0.43;;;;;;;35.62;47.72;100429.25;7397193;19;20021;-86
2023/06/15 08:45:06;;;;;;;1.65;0.45;;;;;;;35.98;45.95;100430.53;7399190;19;20026;-84
2023/06/15 08:47:33;;;;;;;5.07;1.05;;;;;;;35.96;44.78;100426.75;7398045;19;20026;-85
2023/06/15 08:50:02;;;;;;;6.32;1.30;;;;;;;35.89;43.54;100434.34;7395780;19;20414;-85
2023/06/15 08:52:32;;;;;;;3.67;0.80;;;;;;;35.56;43.10;100426.00;7396586;19;20070;-85
2023/06/15 08:55:01;;;;;;;7.95;1.30;;;;;;;35.55;45.17;100424.50;7398425;19;20035;-86
2023/06/15 08:57:28;;;;;;;2.17;0.52;;;;;;;35.59;45.15;100421.81;7396704;19;20018;-86
2023/06/15 08:59:55;;;;;;;3.45;0.52;;;;;;;35.95;45.35;100419.44;7394325;19;20018;-85
2023/06/15 09:02:24;;;;;;;5.18;1.05;;;;;;;36.11;45.98;100420.34;7400592;19;20046;-85
2023/06/15 09:04:52;;;;;;;1.73;0.50;;;;;;;36.25;43.73;100426.91;7400609;19;20036;-84
2023/06/15 09:07:19;;;;;;;1.15;0.50;;;;;;;35.96;43.84;100415.16;7397928;19;20025;-85
2023/06/15 09:10:11;;;;;;;3.13;0.57;;;;;;;36.72;41.88;100410.56;7394546;19;20018;-84
2023/06/15 09:12:48;;;;;;;2.88;1.17;;;;;;;36.74;42.34;100410.66;7396361;19;20041;-84
2023/06/15 09:15:43;;;;;;;1.50;0.22;;;;;;;37.04;42.55;100418.03;7394087;19;20017;-84
2023/06/15 09:18:13;;;;;;;6.45;1.55;;;;;;;37.51;41.56;100411.63;7397607;19;20014;-84
2023/06/15 09:20:39;;;;;;;3.10;0.50;;;;;;;37.74;40.77;100420.00;7392607;19;20122;-85
2023/06/15 09:23:10;;;;;;;2.15;0.43;;;;;;;37.54;39.36;100419.03;7396345;19;20018;-85
2023/06/15 09:25:36;;;;;;;3.95;0.60;;;;;;;36.33;39.64;100424.44;7398503;19;20014;-84
2023/06/15 09:28:06;;;;;;;3.55;1.17;;;;;;;37.37;38.31;100411.69;7395585;19;20014;-85
2023/06/15 09:30:40;;;;;;;5.80;0.75;;;;;;;36.93;38.40;100413.13;7394372;19;20030;-84
2023/06/15 09:33:17;;;;;;;1.50;0.32;;;;;;;37.21;38.01;100414.53;7396208;19;20026;-83
2023/06/15 09:35:59;;;;;;;0.75;0.43;;;;;;;37.52;39.12;100413.13;7396911;19;20027;-82
2023/06/15 09:38:28;;;;;;;1.23;0.32;;;;;;;37.47;39.33;100414.34;7394927;19;20361;-82
2023/06/15 09:40:54;;;;;;;1.92;0.50;;;;;;;37.99;37.31;100413.91;7394084;19;20018;-82
2023/06/15 09:43:21;;;;;;;3.70;0.63;;;;;;;37.48;37.95;100415.84;7395725;19;20014;-82
2023/06/15 09:45:54;;;;;;;1.98;0.40;;;;;;;38.12;37.23;100415.97;7397932;19;20003;-82
2023/06/15 09:48:21;;;;;;;1.65;0.57;;;;;;;38.67;35.29;100413.38;7397014;19;20018;-82
2023/06/15 09:50:51;;;;;;;2.92;0.93;;;;;;;38.61;35.48;100407.28;7394350;19;20018;-83
2023/06/15 09:53:18;;;;;;;1.95;0.45;;;;;;;37.64;37.57;100405.00;7394228;19;20362;-83
2023/06/15 09:55:46;;;;;;;1.15;0.20;;;;;;;37.87;37.73;100414.13;7393518;19;20022;-83
2023/06/15 09:58:13;;;;;;;0.98;0.17;;;;;;;38.84;36.85;100409.75;7397227;19;20014;-82
2023/06/15 10:00:39;;;;;;;0.73;0.20;;;;;;;39.33;34.88;100406.75;7392612;19;20450;-82
2023/06/15 10:03:09;;;;;;;8.02;0.57;;;;;;;39.37;34.60;100406.91;7400473;19;20026;-82
2023/06/15 10:05:43;;;;;;;1.57;0.53;;;;;;;39.43;33.73;100410.06;7398577;19;20122;-83
2023/06/15 10:08:11;;;;;;;6.95;0.70;;;;;;;39.07;34.71;100408.56;7395730;19;20025;-82
2023/06/15 10:10:42;;;;;;;8.15;0.65;;;;;;;38.86;34.88;100403.25;7395314;19;20015;-84
2023/06/15 10:13:15;;;;;;;1.45;0.20;;;;;;;38.93;34.28;100405.03;7395382;19;20007;-82
2023/06/15 10:15:48;;;;;;;2.67;0.30;;;;;;;38.99;33.83;100396.53;7391414;19;20025;-82
2023/06/15 10:18:15;;;;;;;6.20;0.68;;;;;;;38.49;34.23;100395.84;7393172;19;20010;-82
2023/06/15 10:20:41;;;;;;;3.90;0.17;;;;;;;38.53;33.57;100398.22;7391830;19;20534;-82
2023/06/15 10:23:16;;;;;;;1.25;0.20;;;;;;;38.79;32.14;100401.53;7398386;19;20018;-82
2023/06/15 10:25:43;;;;;;;5.43;0.55;;;;;;;38.77;33.38;100392.72;7394284;19;20007;-83
2023/06/15 10:28:11;;;;;;;2.10;0.65;;;;;;;39.40;31.35;100388.81;7395611;19;20050;-82
2023/06/15 10:30:46;;;;;;;0.63;0.17;;;;;;;38.94;33.11;100389.06;7392966;19;20030;-83
2023/06/15 10:33:39;;;;;;;2.05;0.57;;;;;;;39.56;32.34;100391.66;7394631;19;20121;-82
2023/06/15 10:36:17;;;;;;;0.35;0.10;;;;;;;38.95;31.18;100393.47;7396581;19;20350;-83
2023/06/15 10:39:17;;;;;;;1.30;0.30;;;;;;;38.49;32.16;100392.94;7390737;19;20373;-82
2023/06/15 10:41:44;;;;;;;;;;;;;;;38.33;31.78;100389.34;7392979;19;20029;-83
2023/06/15 10:44:15;;;;;;;1.25;0.10;;;;;;;37.95;32.09;100381.75;7397504;19;19959;-83
2023/06/15 10:46:44;;;;;;;3.42;0.45;;;;;;;38.00;32.99;100389.25;7392318;19;20019;-83
2023/06/15 10:49:11;;;;;;;5.65;0.32;;;;;;;38.15;32.61;100393.56;7390110;19;20007;-83
2023/06/15 10:51:52;;;;;;;2.92;0.30;;;;;;;38.33;33.11;100386.44;7392168;19;20015;-82
2023/06/15 10:54:23;;;;;;;1.40;0.52;;;;;;;38.90;31.33;100391.81;7395050;19;20003;-82
2023/06/15 10:56:50;;;;;;;1.17;0.32;;;;;;;38.85;31.94;100387.22;7395378;19;20480;-82
2023/06/15 10:59:38;;;;;;;4.43;0.95;;;;;;;39.87;28.52;100387.75;7395115;19;20039;-83
2023/06/15 11:02:26;;;;;;;9.05;0.25;;;;;;;39.72;29.42;100377.69;7397446;19;20014;-82
2023/06/15 11:04:53;;;;;;;0.57;0.10;;;;;;;39.89;29.80;100384.91;7396335;19;20011;-82
2023/06/15 11:07:37;;;;;;;0.52;0.10;;;;;;;38.89;31.60;100375.72;7397773;19;20018;-82
2023/06/15 11:10:12;;;;;;;2.75;0.20;;;;;;;38.84;32.58;100374.06;7391251;19;20007;-82
2023/06/15 11:12:40;;;;;;;2.08;0.20;;;;;;;39.92;30.30;100378.47;7394318;19;20011;-82
2023/06/15 11:15:09;;;;;;;0.52;0.10;;;;;;;39.96;30.28;100378.59;7392408;19;20342;-83
2023/06/15 11:17:56;;;;;;;0.25;0.00;;;;;;;40.91;29.03;100370.38;7397387;19;20054;-84
2023/06/15 11:20:38;;;;;;;0.32;0.22;;;;;;;39.95;28.49;100380.03;7404502;19;20114;-81
2023/06/15 11:23:09;;;;;;;0.65;0.17;;;;;;;40.52;28.22;100368.31;7411310;19;20034;-81
2023/06/15 11:25:46;;;;;;;1.48;0.15;;;;;;;39.32;28.32;100370.25;7394415;19;20014;-82
2023/06/15 11:28:20;;;;;;;1.58;0.28;;;;;;;39.69;27.79;100367.38;7391963;19;20428;-82
2023/06/15 11:30:57;;;;;;;0.65;0.13;;;;;;;38.30;30.39;100376.09;7390769;19;20023;-82
2023/06/15 11:33:27;;;;;;;2.05;0.25;;;;;;;40.51;28.94;100368.97;7394662;19;20014;-82